Casper, WY

4:32 PM MDT on September 16, 2014 (GMT -0600)
North of Casper, WY | Change Station
CLOSE
Current Station
Personal Weather Station
Location: Bar Nunn, WY
Elevation: 5276 ft
Nearby Weather Stations

Elev 5276 ft 42.91 °N, 106.35 °W | Updated 2 minutes ago

Clear
Clear
84.7 °F
Feels Like 82 °F
N
2.4
Wind Variable Wind from NNE
Gusts 8.9 mph

Today
High -- | Low -- °F
--% Chance of Precip.
Yesterday
High -- | Low -- °F
Precip. -- in
6:46 AM 7:13 PM
Last Quarter, 42% visible
Pressure 29.89 in
Visibility 10.0 miles
Clouds Clear
Heat Index 82 °F
Dew Point 38 °F
Humidity 19%
Rainfall 0.00 in
Snow Depth 0 in , 0 in , 0 in
UV 4 out of 12
Pollen 6.40 out of 12
Air Quality Not available.
Flu Activity Not available.
METAR KCPR 162153Z 28018G24KT 10SM CLR 30/M02 A3007 RMK AO2 PK WND 32028/2059 SLP121 T03001017

More Conditions Fewer Conditions

Pressure 29.89 in
Visibility 10.0 miles
Clouds Clear
Heat Index 82 °F
Dew Point 38 °F
Humidity 19%
Rainfall 0.00 in
Snow Depth 0 in , 0 in , 0 in
UV 4 out of 12
Pollen 6.40 out of 12
Air Quality Not available.
Flu Activity Not available.
METAR KCPR 162153Z 28018G24KT 10SM CLR 30/M02 A3007 RMK AO2 PK WND 32028/2059 SLP121 T03001017

More Conditions Fewer Conditions

10-Day Weather Forecast

Almanac

Astronomy

Sep. 16, 2014 Rise Set
Actual Time 6:46 AM MDT 7:13 PM MDT
Civil Twilight 6:17 AM MDT 7:41 PM MDT
Nautical Twilight 5:44 AM MDT 8:14 PM MDT
Astronomical Twilight 5:09 AM MDT 8:49 PM MDT
Moon No Moon Rise 2:45 PM MDT
Length of Visible Light 13h 23m
Length of Day
12h 27m
Tomorrow will be 2m 52s shorter.
Last Quarter, 42% of the Moon is Illuminated
Today
Last Quarter
Sep 24
New
Oct 1
First Quarter
Oct 8
Full
Oct 15
Last Quarter

Today's Extremes

State Highs State Lows

Community

WunderPhotos

Upload Photos

1,753,896 photos uploaded!

Nearby

Snow Depth

Station Depth Elevation
Townsend Creek 0 in 8700 ft
South Brush Creek 0 in 8440 ft
Kendall R.S. 0 in 7740 ft
Phillips Bench 0 in 8200 ft
Loomis Park 0 in 8240 ft

Earthquake Activity

City Distance Mag. Time & Date
No recent earthquake activity has been reported nearby.
Minimum magnitude displayed is 2.5.

Coastal Water Temperatures

Place Temperature
No Stations Reporting

Nearby Weather Stations